Time,TemperatureF,DewpointF,PressureIn,WindDirection,WindDirectionDegrees,WindSpeedMPH,WindSpeedGustMPH,Humidity,HourlyPrecipIn,Conditions,Clouds,dailyrainin,SoftwareType,DateUTC
2013-01-26 00:02:00,35.0,25.0,-100.00,NE,56,2.0,4.0,67,0.00,,,-99.99,,2013-01-26 07:02:00,
2013-01-26 00:12:00,36.0,25.0,-100.00,NNE,28,4.0,7.0,66,0.00,,,-99.99,,2013-01-26 07:12:00,
2013-01-26 00:21:00,34.0,25.0,-100.00,NE,34,4.0,8.0,69,0.00,,,-99.99,,2013-01-26 07:21:00,
2013-01-26 00:33:00,34.0,25.0,-100.00,NE,45,4.0,7.0,72,0.00,,,-99.99,,2013-01-26 07:33:00,
2013-01-26 00:41:00,33.0,26.0,-100.00,NNE,17,4.0,7.0,75,0.00,,,-99.99,,2013-01-26 07:41:00,
2013-01-26 00:51:00,34.0,26.0,-100.00,East,83,2.0,6.0,71,0.00,,,-99.99,,2013-01-26 07:51:00,
2013-01-26 01:02:00,37.0,25.0,-100.00,SSW,198,4.0,9.0,61,0.00,,,-99.99,,2013-01-26 08:02:00,
2013-01-26 01:11:00,37.0,25.0,-100.00,SSE,161,5.0,10.0,60,0.00,,,-99.99,,2013-01-26 08:11:00,
2013-01-26 01:21:00,37.0,25.0,-100.00,SSE,161,6.0,12.0,63,0.00,,,-99.99,,2013-01-26 08:21:00,
2013-01-26 01:32:00,36.0,25.0,-100.00,SSE,155,6.0,9.0,64,0.00,,,-99.99,,2013-01-26 08:32:00,
2013-01-26 01:42:00,37.0,25.0,-100.00,SSE,162,6.0,13.0,61,0.00,,,-99.99,,2013-01-26 08:42:00,
2013-01-26 01:53:00,37.0,24.0,-100.00,SSE,162,6.0,14.0,60,0.00,,,-99.99,,2013-01-26 08:53:00,
2013-01-26 02:02:00,37.0,25.0,-100.00,South,174,6.0,14.0,60,0.00,,,-99.99,,2013-01-26 09:02:00,
2013-01-26 02:11:00,36.0,24.0,-100.00,South,185,6.0,14.0,62,0.00,,,-99.99,,2013-01-26 09:11:00,
2013-01-26 02:22:00,36.0,25.0,-100.00,South,181,5.0,16.0,64,0.00,,,-99.99,,2013-01-26 09:22:00,
2013-01-26 02:32:00,36.0,25.0,-100.00,SW,220,8.0,19.0,63,0.00,,,-99.99,,2013-01-26 09:32:00,
2013-01-26 02:42:00,36.0,25.0,-100.00,SSW,212,6.0,16.0,64,0.00,,,-99.99,,2013-01-26 09:42:00,
2013-01-26 02:51:00,35.0,25.0,-100.00,SW,215,6.0,14.0,65,0.00,,,-99.99,,2013-01-26 09:51:00,
2013-01-26 03:01:00,36.0,25.0,-100.00,SW,220,6.0,16.0,64,0.00,,,-99.99,,2013-01-26 10:01:00,
2013-01-26 03:11:00,35.0,25.0,-100.00,SW,234,6.0,15.0,65,0.00,,,-99.99,,2013-01-26 10:11:00,
2013-01-26 03:21:00,36.0,25.0,-100.00,SW,229,10.0,23.0,66,0.00,,,-99.99,,2013-01-26 10:21:00,
2013-01-26 03:31:00,36.0,26.0,-100.00,SW,234,16.0,33.0,65,0.00,,,-99.99,,2013-01-26 10:31:00,
2013-01-26 03:42:00,36.0,26.0,-100.00,SW,227,19.0,33.0,66,0.00,,,-99.99,,2013-01-26 10:42:00,
2013-01-26 03:52:00,35.0,26.0,-100.00,SW,233,12.0,24.0,67,0.00,,,-99.99,,2013-01-26 10:52:00,
2013-01-26 04:01:00,36.0,26.0,-100.00,WSW,248,9.0,15.0,66,0.00,,,-99.99,,2013-01-26 11:01:00,
2013-01-26 04:12:00,36.0,26.0,-100.00,WSW,240,9.0,17.0,64,0.00,,,-99.99,,2013-01-26 11:12:00,
2013-01-26 04:22:00,37.0,26.0,-100.00,SW,232,7.0,18.0,64,0.00,,,-99.99,,2013-01-26 11:22:00,
2013-01-26 04:32:00,37.0,26.0,-100.00,SW,217,9.0,17.0,65,0.00,,,-99.99,,2013-01-26 11:32:00,
2013-01-26 04:42:00,36.0,26.0,-100.00,SSW,206,7.0,17.0,66,0.00,,,-99.99,,2013-01-26 11:42:00,
2013-01-26 04:52:00,37.0,26.0,-100.00,SSW,209,9.0,17.0,63,0.00,,,-99.99,,2013-01-26 11:52:00,
2013-01-26 05:02:00,37.0,26.0,-100.00,SSW,199,7.0,21.0,63,0.00,,,-99.99,,2013-01-26 12:02:00,
2013-01-26 05:12:00,37.0,26.0,-100.00,South,188,7.0,24.0,64,0.00,,,-99.99,,2013-01-26 12:12:00,
2013-01-26 05:22:00,37.0,26.0,-100.00,SW,220,7.0,16.0,63,0.00,,,-99.99,,2013-01-26 12:22:00,
2013-01-26 05:33:00,37.0,25.0,-100.00,SW,215,6.0,14.0,62,0.00,,,-99.99,,2013-01-26 12:33:00,
2013-01-26 05:42:00,37.0,26.0,-100.00,SSE,148,7.0,14.0,62,0.00,,,-99.99,,2013-01-26 12:42:00,
2013-01-26 05:52:00,37.0,25.0,-100.00,East,86,4.0,11.0,61,0.00,,,-99.99,,2013-01-26 12:52:00,
2013-01-26 06:03:00,37.0,25.0,-100.00,ENE,58,7.0,12.0,60,0.00,,,-99.99,,2013-01-26 13:03:00,
2013-01-26 06:12:00,37.0,24.0,-100.00,ENE,75,8.0,15.0,60,0.00,,,-99.99,,2013-01-26 13:12:00,
2013-01-26 06:22:00,37.0,24.0,-100.00,East,88,7.0,15.0,59,0.00,,,-99.99,,2013-01-26 13:22:00,
2013-01-26 06:32:00,39.0,23.0,-100.00,East,89,9.0,24.0,53,0.00,,,-99.99,,2013-01-26 13:32:00,
2013-01-26 06:42:00,38.0,23.0,-100.00,SSW,209,7.0,15.0,54,0.00,,,-99.99,,2013-01-26 13:42:00,
2013-01-26 06:52:00,38.0,23.0,-100.00,WSW,247,6.0,12.0,54,0.00,,,-99.99,,2013-01-26 13:52:00,
2013-01-26 07:03:00,38.0,23.0,-100.00,South,191,6.0,12.0,55,0.00,,,-99.99,,2013-01-26 14:03:00,
2013-01-26 07:11:00,38.0,23.0,-100.00,SSE,167,4.0,10.0,55,0.00,,,-99.99,,2013-01-26 14:11:00,
2013-01-26 07:21:00,37.0,23.0,-100.00,WSW,253,6.0,16.0,57,0.00,,,-99.99,,2013-01-26 14:21:00,
2013-01-26 07:32:00,38.0,23.0,-100.00,SW,222,7.0,19.0,56,0.00,,,-99.99,,2013-01-26 14:32:00,
2013-01-26 07:43:00,38.0,23.0,-100.00,SW,233,7.0,20.0,55,0.00,,,-99.99,,2013-01-26 14:43:00,
2013-01-26 07:52:00,37.0,23.0,-100.00,East,83,6.0,11.0,57,0.00,,,-99.99,,2013-01-26 14:52:00,
2013-01-26 08:03:00,37.0,23.0,-100.00,ESE,106,5.0,9.0,57,0.00,,,-99.99,,2013-01-26 15:03:00,
2013-01-26 08:12:00,38.0,23.0,-100.00,ESE,109,5.0,9.0,56,0.00,,,-99.99,,2013-01-26 15:12:00,
2013-01-26 08:22:00,37.0,23.0,-100.00,ESE,103,2.0,4.0,57,0.00,,,-99.99,,2013-01-26 15:22:00,
2013-01-26 08:32:00,38.0,23.0,-100.00,SSE,161,7.0,13.0,56,0.00,,,-99.99,,2013-01-26 15:32:00,
2013-01-26 08:43:00,38.0,23.0,-100.00,South,169,10.0,14.0,56,0.00,,,-99.99,,2013-01-26 15:43:00,
2013-01-26 08:52:00,38.0,24.0,-100.00,SSE,161,11.0,17.0,56,0.00,,,-99.99,,2013-01-26 15:52:00,
2013-01-26 09:02:00,39.0,23.0,-100.00,SSE,152,12.0,17.0,53,0.00,,,-99.99,,2013-01-26 16:02:00,
2013-01-26 09:12:00,38.0,23.0,-100.00,South,176,11.0,17.0,53,0.00,,,-99.99,,2013-01-26 16:12:00,
2013-01-26 09:22:00,39.0,22.0,-100.00,South,172,11.0,16.0,51,0.00,,,-99.99,,2013-01-26 16:22:00,
2013-01-26 09:32:00,38.0,23.0,-100.00,South,171,12.0,17.0,53,0.00,,,-99.99,,2013-01-26 16:32:00,
2013-01-26 09:42:00,39.0,23.0,-100.00,South,182,6.0,12.0,52,0.00,,,-99.99,,2013-01-26 16:42:00,
2013-01-26 09:53:00,40.0,23.0,-100.00,South,178,7.0,12.0,50,0.00,,,-99.99,,2013-01-26 16:53:00,
2013-01-26 10:03:00,40.0,23.0,-100.00,South,184,6.0,11.0,50,0.00,,,-99.99,,2013-01-26 17:03:00,
2013-01-26 10:12:00,40.0,23.0,-100.00,South,174,7.0,11.0,51,0.00,,,-99.99,,2013-01-26 17:12:00,
2013-01-26 10:22:00,40.0,23.0,-100.00,South,169,9.0,15.0,51,0.00,,,-99.99,,2013-01-26 17:22:00,
2013-01-26 10:32:00,41.0,23.0,-100.00,South,174,9.0,14.0,49,0.00,,,-99.99,,2013-01-26 17:32:00,
2013-01-26 10:42:00,42.0,23.0,-100.00,South,182,6.0,11.0,48,0.00,,,-99.99,,2013-01-26 17:42:00,
2013-01-26 10:52:00,44.0,23.0,-100.00,SSW,196,3.0,11.0,44,0.00,,,-99.99,,2013-01-26 17:52:00,
2013-01-26 11:02:00,42.0,23.0,-100.00,West,268,3.0,7.0,47,0.00,,,-99.99,,2013-01-26 18:02:00,
2013-01-26 11:12:00,42.0,23.0,-100.00,NNW,344,6.0,12.0,47,0.00,,,-99.99,,2013-01-26 18:12:00,
2013-01-26 11:22:00,41.0,23.0,-100.00,North,0,5.0,9.0,49,0.00,,,-99.99,,2013-01-26 18:22:00,
2013-01-26 11:33:00,43.0,24.0,-100.00,West,275,2.0,4.0,47,0.00,,,-99.99,,2013-01-26 18:33:00,
2013-01-26 11:42:00,43.0,23.0,-100.00,SSE,150,2.0,6.0,44,0.00,,,-99.99,,2013-01-26 18:42:00,
2013-01-26 11:52:00,42.0,24.0,-100.00,NNE,25,5.0,9.0,48,0.00,,,-99.99,,2013-01-26 18:52:00,
2013-01-26 12:03:00,42.0,23.0,-100.00,North,3,3.0,6.0,47,0.00,,,-99.99,,2013-01-26 19:03:00,
2013-01-26 12:12:00,42.0,23.0,-100.00,North,3,3.0,7.0,47,0.00,,,-99.99,,2013-01-26 19:12:00,
2013-01-26 12:22:00,43.0,23.0,-100.00,NNE,27,4.0,7.0,45,0.00,,,-99.99,,2013-01-26 19:22:00,
2013-01-26 12:32:00,43.0,23.0,-100.00,NNE,13,6.0,11.0,45,0.00,,,-99.99,,2013-01-26 19:32:00,
2013-01-26 12:42:00,43.0,23.0,-100.00,North,0,7.0,11.0,45,0.00,,,-99.99,,2013-01-26 19:42:00,
2013-01-26 12:52:00,43.0,22.0,-100.00,North,0,7.0,10.0,42,0.00,,,-99.99,,2013-01-26 19:52:00,
2013-01-26 13:02:00,43.0,21.0,-100.00,NW,323,6.0,10.0,42,0.00,,,-99.99,,2013-01-26 20:02:00,
2013-01-26 13:11:00,43.0,23.0,-100.00,NNW,344,6.0,12.0,45,0.00,,,-99.99,,2013-01-26 20:11:00,
2013-01-26 13:21:00,43.0,24.0,-100.00,North,359,9.0,14.0,46,0.00,,,-99.99,,2013-01-26 20:21:00,
2013-01-26 13:32:00,43.0,24.0,-100.00,North,352,11.0,16.0,47,0.00,,,-99.99,,2013-01-26 20:32:00,
2013-01-26 13:42:00,43.0,24.0,-100.00,North,354,11.0,16.0,46,0.00,,,-99.99,,2013-01-26 20:42:00,
2013-01-26 13:52:00,43.0,24.0,-100.00,NNW,346,10.0,13.0,46,0.00,,,-99.99,,2013-01-26 20:52:00,
2013-01-26 14:02:00,42.0,24.0,-100.00,North,350,10.0,15.0,47,0.00,,,-99.99,,2013-01-26 21:02:00,
2013-01-26 14:12:00,43.0,23.0,-100.00,North,353,11.0,15.0,45,0.00,,,-99.99,,2013-01-26 21:12:00,
2013-01-26 14:22:00,42.0,24.0,-100.00,North,359,12.0,18.0,48,0.00,,,-99.99,,2013-01-26 21:22:00,
2013-01-26 14:32:00,42.0,24.0,-100.00,North,357,13.0,18.0,49,0.00,,,-99.99,,2013-01-26 21:32:00,
2013-01-26 14:42:00,42.0,24.0,-100.00,NNW,346,12.0,17.0,49,0.00,,,-99.99,,2013-01-26 21:42:00,
2013-01-26 14:51:00,42.0,24.0,-100.00,NNW,344,11.0,20.0,49,0.00,,,-99.99,,2013-01-26 21:51:00,
2013-01-26 15:01:00,42.0,24.0,-100.00,NE,56,6.0,11.0,48,0.00,,,-99.99,,2013-01-26 22:01:00,
2013-01-26 15:11:00,42.0,24.0,-100.00,East,82,4.0,11.0,48,0.00,,,-99.99,,2013-01-26 22:11:00,
2013-01-26 15:21:00,42.0,24.0,-100.00,North,4,8.0,16.0,50,0.00,,,-99.99,,2013-01-26 22:21:00,
2013-01-26 15:32:00,42.0,25.0,-100.00,North,8,10.0,17.0,51,0.00,,,-99.99,,2013-01-26 22:32:00,
2013-01-26 15:42:00,42.0,25.0,-100.00,NNE,27,6.0,11.0,51,0.00,,,-99.99,,2013-01-26 22:42:00,
2013-01-26 15:51:00,41.0,25.0,-100.00,NNE,32,3.0,7.0,51,0.00,,,-99.99,,2013-01-26 22:51:00,
2013-01-26 16:01:00,41.0,24.0,-100.00,North,7,7.0,12.0,51,0.00,,,-99.99,,2013-01-26 23:01:00,
2013-01-26 16:11:00,41.0,25.0,-100.00,North,350,9.0,15.0,51,0.00,,,-99.99,,2013-01-26 23:11:00,
2013-01-26 16:22:00,41.0,25.0,-100.00,North,359,6.0,12.0,53,0.00,,,-99.99,,2013-01-26 23:22:00,
2013-01-26 16:32:00,40.0,25.0,-100.00,NNW,339,8.0,11.0,54,0.00,,,-99.99,,2013-01-26 23:32:00,
2013-01-26 16:41:00,40.0,25.0,-100.00,NNW,346,6.0,11.0,55,0.00,,,-99.99,,2013-01-26 23:41:00,
2013-01-26 16:52:00,39.0,25.0,-100.00,North,360,5.0,7.0,56,0.00,,,-99.99,,2013-01-26 23:52:00,
2013-01-26 17:02:00,39.0,25.0,-100.00,North,8,4.0,6.0,57,0.00,,,-99.99,,2013-01-27 00:02:00,
2013-01-26 17:11:00,39.0,25.0,-100.00,NNE,16,4.0,6.0,58,0.00,,,-99.99,,2013-01-27 00:11:00,
2013-01-26 17:21:00,38.0,25.0,-100.00,North,4,2.0,4.0,59,0.00,,,-99.99,,2013-01-27 00:21:00,
2013-01-26 17:32:00,38.0,26.0,-100.00,NNW,339,1.0,2.0,60,0.00,,,-99.99,,2013-01-27 00:32:00,
2013-01-26 17:41:00,38.0,26.0,-100.00,WNW,282,0.0,2.0,61,0.00,,,-99.99,,2013-01-27 00:41:00,
2013-01-26 17:51:00,38.0,26.0,-100.00,SSW,203,0.0,2.0,61,0.00,,,-99.99,,2013-01-27 00:51:00,
2013-01-26 18:01:00,38.0,26.0,-100.00,South,176,1.0,2.0,61,0.00,,,-99.99,,2013-01-27 01:01:00,
2013-01-26 18:11:00,37.0,26.0,-100.00,SE,137,1.0,2.0,62,0.00,,,-99.99,,2013-01-27 01:11:00,
2013-01-26 18:22:00,36.0,26.0,-100.00,East,95,4.0,6.0,65,0.00,,,-99.99,,2013-01-27 01:22:00,
2013-01-26 18:32:00,36.0,25.0,-100.00,East,86,4.0,7.0,65,0.00,,,-99.99,,2013-01-27 01:32:00,
2013-01-26 18:41:00,36.0,26.0,-100.00,SE,130,6.0,7.0,67,0.00,,,-99.99,,2013-01-27 01:41:00,
2013-01-26 18:51:00,36.0,26.0,-100.00,SE,128,5.0,7.0,67,0.00,,,-99.99,,2013-01-27 01:51:00,
2013-01-26 19:01:00,36.0,26.0,-100.00,ESE,107,2.0,6.0,67,0.00,,,-99.99,,2013-01-27 02:01:00,
2013-01-26 19:11:00,36.0,26.0,-100.00,East,92,1.0,3.0,68,0.00,,,-99.99,,2013-01-27 02:11:00,
2013-01-26 19:21:00,35.0,26.0,-100.00,South,172,1.0,3.0,69,0.00,,,-99.99,,2013-01-27 02:21:00,
2013-01-26 19:31:00,35.0,26.0,-100.00,SE,143,3.0,5.0,68,0.00,,,-99.99,,2013-01-27 02:31:00,
2013-01-26 19:41:00,35.0,26.0,-100.00,SE,133,2.0,5.0,68,0.00,,,-99.99,,2013-01-27 02:41:00,
2013-01-26 19:52:00,35.0,27.0,-100.00,East,83,2.0,4.0,70,0.00,,,-99.99,,2013-01-27 02:52:00,
2013-01-26 20:02:00,35.0,26.0,-100.00,ENE,75,6.0,13.0,71,0.00,,,-99.99,,2013-01-27 03:02:00,
2013-01-26 20:11:00,34.0,26.0,-100.00,East,82,7.0,13.0,73,0.00,,,-99.99,,2013-01-27 03:11:00,
2013-01-26 20:21:00,33.0,26.0,-100.00,ESE,102,7.0,11.0,77,0.00,,,-99.99,,2013-01-27 03:21:00,
2013-01-26 20:32:00,33.0,27.0,-100.00,SE,124,9.0,11.0,78,0.00,,,-99.99,,2013-01-27 03:32:00,
2013-01-26 20:42:00,34.0,27.0,-100.00,SE,128,9.0,11.0,76,0.00,,,-99.99,,2013-01-27 03:42:00,
2013-01-26 20:51:00,35.0,27.0,-100.00,SSE,155,9.0,11.0,72,0.00,,,-99.99,,2013-01-27 03:51:00,
2013-01-26 21:01:00,35.0,27.0,-100.00,SSE,151,6.0,9.0,73,0.00,,,-99.99,,2013-01-27 04:01:00,
2013-01-26 21:11:00,35.0,27.0,-100.00,SSE,155,7.0,9.0,72,0.00,,,-99.99,,2013-01-27 04:11:00,
2013-01-26 21:21:00,35.0,27.0,-100.00,SSE,150,5.0,7.0,71,0.00,,,-99.99,,2013-01-27 04:21:00,
2013-01-26 21:32:00,35.0,27.0,-100.00,SE,144,3.0,6.0,71,0.00,,,-99.99,,2013-01-27 04:32:00,
2013-01-26 21:41:00,35.0,27.0,-100.00,SSE,147,1.0,3.0,71,0.00,,,-99.99,,2013-01-27 04:41:00,
2013-01-26 21:51:00,35.0,27.0,-100.00,SSW,195,1.0,3.0,71,0.00,,,-99.99,,2013-01-27 04:51:00,
2013-01-26 22:03:00,34.0,27.0,-100.00,West,271,3.0,4.0,75,0.00,,,-99.99,,2013-01-27 05:03:00,
2013-01-26 22:12:00,33.0,26.0,-100.00,West,267,2.0,4.0,76,0.00,,,-99.99,,2013-01-27 05:12:00,
2013-01-26 22:22:00,33.0,26.0,-100.00,SW,226,2.0,3.0,76,0.00,,,-99.99,,2013-01-27 05:22:00,
2013-01-26 22:32:00,33.0,26.0,-100.00,SW,222,2.0,4.0,76,0.00,,,-99.99,,2013-01-27 05:32:00,
2013-01-26 22:41:00,32.0,26.0,-100.00,SW,232,2.0,4.0,77,0.00,,,-99.99,,2013-01-27 05:41:00,
2013-01-26 22:52:00,33.0,26.0,-100.00,SW,219,2.0,3.0,77,0.00,,,-99.99,,2013-01-27 05:52:00,
2013-01-26 23:01:00,33.0,26.0,-100.00,SW,219,2.0,4.0,76,0.00,,,-99.99,,2013-01-27 06:01:00,
2013-01-26 23:11:00,33.0,26.0,-100.00,SW,224,2.0,3.0,76,0.00,,,-99.99,,2013-01-27 06:11:00,
2013-01-26 23:21:00,33.0,26.0,-100.00,SSW,212,2.0,3.0,76,0.00,,,-99.99,,2013-01-27 06:21:00,
2013-01-26 23:32:00,34.0,27.0,-100.00,SW,222,1.0,2.0,74,0.00,,,-99.99,,2013-01-27 06:32:00,
2013-01-26 23:41:00,34.0,27.0,-100.00,SW,236,2.0,3.0,74,0.00,,,-99.99,,2013-01-27 06:41:00,
2013-01-26 23:51:00,35.0,27.0,-100.00,SW,215,2.0,3.0,73,0.00,,,-99.99,,2013-01-27 06:51:00,